Time;durP1;ratioP1;P1;durP2;ratioP2;P2;SDS_P1;SDS_P2;PMS_P1;PMS_P2;Temp;Humidity;BMP_temperature;BMP_pressure;BME280_temperature;BME280_humidity;BME280_pressure;Samples;Min_cycle;Max_cycle;Signal;HPM_P1;HPM_P2
2021/12/07 00:01:54;;;;;;;16.43;7.30;;;;;;;-145.18;100.00;60484.78;5054848;28;20278;-66
2021/12/07 00:04:20;;;;;;;16.87;7.77;;;;;;;-145.18;100.00;60484.78;5057972;28;20694;-66
2021/12/07 00:06:45;;;;;;;19.47;8.10;;;;;;;-145.18;100.00;60484.78;5058220;28;20352;-65
2021/12/07 00:09:13;;;;;;;19.00;8.53;;;;;;;-145.18;100.00;60484.78;5060063;28;20051;-66
2021/12/07 00:11:38;;;;;;;18.83;7.63;;;;;;;-145.18;100.00;60484.78;5056921;28;20047;-66
2021/12/07 00:14:15;;;;;;;17.63;7.77;;;;;;;-145.18;100.00;60484.78;5050904;28;20255;-66
2021/12/07 00:16:42;;;;;;;22.73;9.57;;;;;;;-145.18;100.00;60484.78;5060765;28;20047;-66
2021/12/07 00:19:09;;;;;;;18.67;7.83;;;;;;;-145.18;100.00;60484.78;5054471;28;20340;-66
2021/12/07 00:21:34;;;;;;;20.13;8.03;;;;;;;-145.18;100.00;60484.78;5058094;28;20746;-66
2021/12/07 00:24:00;;;;;;;18.77;8.30;;;;;;;-145.18;100.00;60484.78;5054437;28;20346;-66
2021/12/07 00:26:25;;;;;;;21.13;9.33;;;;;;;-145.18;100.00;60484.78;5059176;28;20059;-65
2021/12/07 00:28:51;;;;;;;17.90;8.03;;;;;;;-145.18;100.00;60484.78;5057998;28;20021;-66
2021/12/07 00:31:35;;;;;;;21.10;8.90;;;;;;;-145.18;100.00;60484.78;5054925;28;20131;-66
2021/12/07 00:36:32;;;;;;;19.63;8.43;;;;;;;-145.18;100.00;60484.78;5058304;28;20291;-66
2021/12/07 00:38:58;;;;;;;15.03;7.03;;;;;;;-145.18;100.00;60484.78;5053580;28;20274;-66
2021/12/07 00:41:24;;;;;;;20.40;8.13;;;;;;;-145.18;100.00;60484.78;5053027;28;20021;-66
2021/12/07 00:43:49;;;;;;;21.83;8.53;;;;;;;-145.18;100.00;60484.78;5051722;28;20274;-66
2021/12/07 00:46:15;;;;;;;18.50;8.50;;;;;;;-145.18;100.00;60484.78;5061211;28;20670;-66
2021/12/07 00:48:40;;;;;;;17.00;8.47;;;;;;;-145.18;100.00;60484.78;5060944;28;20032;-66
2021/12/07 00:51:06;;;;;;;17.30;7.47;;;;;;;-145.18;100.00;60484.78;5057512;28;20024;-66
2021/12/07 00:53:31;;;;;;;19.90;8.83;;;;;;;-145.18;100.00;60484.78;5051582;28;20044;-66
2021/12/07 00:56:01;;;;;;;24.13;9.23;;;;;;;-145.18;100.00;60484.78;5056534;28;20465;-66
2021/12/07 00:58:27;;;;;;;19.43;9.13;;;;;;;-145.18;100.00;60484.78;5053584;28;20098;-66
2021/12/07 01:00:57;;;;;;;18.43;7.87;;;;;;;-145.18;100.00;60484.78;5054781;28;20314;-66
2021/12/07 01:03:25;;;;;;;20.53;8.67;;;;;;;-145.18;100.00;60484.78;5054648;28;20369;-66
2021/12/07 01:05:53;;;;;;;20.33;8.37;;;;;;;-145.18;100.00;60484.78;5055357;28;20743;-66
2021/12/07 01:24:44;;;;;;;19.93;9.07;;;;;;;-145.18;100.00;60484.78;5057933;28;20277;-66
2021/12/07 01:27:13;;;;;;;22.97;9.43;;;;;;;-145.18;100.00;60484.78;5058657;28;20381;-66
2021/12/07 01:29:41;;;;;;;20.63;8.47;;;;;;;-145.18;100.00;60484.78;5053140;28;20032;-66
2021/12/07 02:01:05;;;;;;;19.13;8.57;;;;;;;-145.18;100.00;60484.78;4992905;28;21202;-66
2021/12/07 02:03:31;;;;;;;21.17;8.20;;;;;;;-145.18;100.00;60484.78;5001450;23;20028;-68
2021/12/07 02:05:57;;;;;;;19.97;9.03;;;;;;;-145.18;100.00;60484.78;5037011;28;20318;-68
2021/12/07 02:08:23;;;;;;;19.90;8.77;;;;;;;-145.18;100.00;60484.78;5030878;28;20030;-68
2021/12/07 02:10:53;;;;;;;20.30;7.97;;;;;;;-145.18;100.00;60484.78;5037224;28;20118;-68
2021/12/07 02:15:57;;;;;;;21.47;8.90;;;;;;;-145.18;100.00;60484.78;5037755;28;20282;-68
2021/12/07 02:18:23;;;;;;;22.27;9.83;;;;;;;-145.18;100.00;60484.78;5034509;28;20280;-68
2021/12/07 02:20:50;;;;;;;22.80;9.93;;;;;;;-145.18;100.00;60484.78;5038391;28;20025;-68
2021/12/07 02:23:16;;;;;;;22.50;9.73;;;;;;;-145.18;100.00;60484.78;5031886;28;20279;-68
2021/12/07 02:25:42;;;;;;;21.93;9.73;;;;;;;-145.18;100.00;60484.78;5034450;28;20287;-68
2021/12/07 02:28:13;;;;;;;25.03;9.90;;;;;;;-145.18;100.00;60484.78;5037308;28;20374;-69
2021/12/07 02:30:41;;;;;;;24.43;10.27;;;;;;;-145.18;100.00;60484.78;5034548;28;20263;-69
2021/12/07 02:33:07;;;;;;;27.77;10.20;;;;;;;-145.18;100.00;60484.78;5034623;28;20271;-68
2021/12/07 02:35:33;;;;;;;22.60;9.13;;;;;;;-145.18;100.00;60484.78;5036121;28;20286;-68
2021/12/07 02:37:59;;;;;;;27.70;10.23;;;;;;;-145.18;100.00;60484.78;5033695;28;20025;-68
2021/12/07 02:40:25;;;;;;;23.07;8.93;;;;;;;-145.18;100.00;60484.78;5036634;28;20028;-69
2021/12/07 02:42:50;;;;;;;22.70;9.20;;;;;;;-145.18;100.00;60484.78;5030938;28;20802;-69
2021/12/07 02:45:18;;;;;;;25.27;10.60;;;;;;;-145.18;100.00;60484.78;5035245;28;20294;-69
2021/12/07 02:47:44;;;;;;;20.50;8.77;;;;;;;-145.18;100.00;60484.78;5030772;28;20037;-69
2021/12/07 02:50:11;;;;;;;21.67;9.30;;;;;;;-145.18;100.00;60484.78;5032658;28;20367;-68
2021/12/07 02:52:38;;;;;;;25.80;11.53;;;;;;;-145.18;100.00;60484.78;5030825;28;20283;-69
2021/12/07 02:55:05;;;;;;;23.10;8.83;;;;;;;-145.18;100.00;60484.78;5037665;28;20272;-69
2021/12/07 02:57:31;;;;;;;23.67;10.20;;;;;;;-145.18;100.00;60484.78;5030774;28;20314;-69
2021/12/07 03:00:11;;;;;;;23.27;9.80;;;;;;;-145.18;100.00;60484.78;5032039;28;20723;-69
2021/12/07 03:02:44;;;;;;;26.97;10.47;;;;;;;-145.18;100.00;60484.78;5035120;28;20056;-69
2021/12/07 03:26:51;;;;;;;24.50;10.10;;;;;;;-145.18;100.00;60484.78;5018311;28;20312;-69
2021/12/07 03:29:16;;;;;;;28.77;10.83;;;;;;;-145.18;100.00;60484.78;5018683;28;20668;-69
2021/12/07 03:31:41;;;;;;;30.27;10.70;;;;;;;-145.18;100.00;60484.78;5018926;28;20705;-69
2021/12/07 03:34:07;;;;;;;27.43;11.10;;;;;;;-145.18;100.00;60484.78;5013890;28;20041;-69
2021/12/07 03:36:33;;;;;;;33.40;11.03;;;;;;;-145.18;100.00;60484.78;5010877;28;20433;-68
2021/12/07 03:38:58;;;;;;;34.20;11.47;;;;;;;-145.18;100.00;60484.78;5019452;28;20563;-69
2021/12/07 03:41:24;;;;;;;26.90;10.83;;;;;;;-145.18;100.00;60484.78;5017212;28;20029;-68
2021/12/07 03:43:49;;;;;;;28.80;11.00;;;;;;;-145.18;100.00;60484.78;5009929;28;20025;-69
2021/12/07 03:46:15;;;;;;;31.50;12.17;;;;;;;-145.18;100.00;60484.78;5010456;28;20029;-69
2021/12/07 03:48:42;;;;;;;30.83;12.47;;;;;;;-145.18;100.00;60484.78;5019225;28;20052;-69
2021/12/07 03:51:08;;;;;;;29.77;11.67;;;;;;;-145.18;100.00;60484.78;5013531;28;20032;-69
2021/12/07 03:53:35;;;;;;;31.00;11.90;;;;;;;-145.18;100.00;60484.78;5019558;28;20315;-69
2021/12/07 03:56:02;;;;;;;28.90;10.73;;;;;;;-145.18;100.00;60484.78;5018278;28;20264;-69
2021/12/07 03:58:28;;;;;;;26.43;10.53;;;;;;;-145.18;100.00;60484.78;5017341;28;20853;-69
2021/12/07 04:00:54;;;;;;;26.07;11.60;;;;;;;-145.18;100.00;60484.78;5010475;28;20257;-68
2021/12/07 04:03:20;;;;;;;27.90;11.37;;;;;;;-145.18;100.00;60484.78;5018832;28;20052;-69
2021/12/07 04:05:50;;;;;;;27.63;11.33;;;;;;;-145.18;100.00;60484.78;5015379;28;20677;-69
2021/12/07 04:08:26;;;;;;;28.43;11.23;;;;;;;-145.18;100.00;60484.78;5018906;28;20302;-69
2021/12/07 04:10:54;;;;;;;27.70;10.43;;;;;;;-145.18;100.00;60484.78;5018913;28;20276;-69
2021/12/07 04:13:19;;;;;;;29.50;10.57;;;;;;;-145.18;100.00;60484.78;5013271;28;20271;-69
2021/12/07 04:15:45;;;;;;;33.57;12.60;;;;;;;-145.18;100.00;60484.78;5019267;28;20330;-69
2021/12/07 04:18:10;;;;;;;31.90;11.33;;;;;;;-145.18;100.00;60484.78;5021596;28;20087;-69
2021/12/07 04:20:36;;;;;;;25.90;10.73;;;;;;;-145.18;100.00;60484.78;5021414;28;20079;-69
2021/12/07 04:23:03;;;;;;;27.47;10.27;;;;;;;-145.18;100.00;60484.78;5021514;28;20414;-68
2021/12/07 04:25:29;;;;;;;29.70;10.50;;;;;;;-145.18;100.00;60484.78;5022609;28;20296;-69
2021/12/07 04:27:55;;;;;;;27.67;10.50;;;;;;;-145.18;100.00;60484.78;5020319;28;20386;-68
2021/12/07 04:30:35;;;;;;;30.30;11.20;;;;;;;-145.18;100.00;60484.78;5018785;28;20579;-68
2021/12/07 04:33:03;;;;;;;27.23;10.67;;;;;;;-145.18;100.00;60484.78;5020087;28;20774;-69
2021/12/07 04:35:29;;;;;;;31.40;10.33;;;;;;;-145.18;100.00;60484.78;5016644;28;20312;-69
2021/12/07 04:37:56;;;;;;;28.70;11.60;;;;;;;-145.18;100.00;60484.78;5018826;28;20341;-69
2021/12/07 04:40:24;;;;;;;30.60;11.63;;;;;;;-145.18;100.00;60484.78;5016329;28;20281;-69
2021/12/07 04:42:51;;;;;;;28.13;11.17;;;;;;;-145.18;100.00;60484.78;5016465;28;20279;-69
2021/12/07 04:59:09;;;;;;;30.13;11.13;;;;;;;-145.18;100.00;60484.78;4960607;28;20309;-69
2021/12/07 05:01:34;;;;;;;27.87;11.30;;;;;;;-145.18;100.00;60484.78;4959230;28;20806;-69
2021/12/07 05:04:06;;;;;;;30.60;10.77;;;;;;;-145.18;100.00;60484.78;4960076;28;20144;-69
2021/12/07 05:06:35;;;;;;;25.00;9.95;;;;;;;-145.18;100.00;60484.78;4959505;28;20422;-69
2021/12/07 05:09:19;;;;;;;28.50;10.50;;;;;;;-145.18;100.00;60484.78;4959826;28;20624;-69
2021/12/07 05:12:02;;;;;;;30.03;11.23;;;;;;;-145.18;100.00;60484.78;4959892;28;20282;-69
2021/12/07 05:14:34;;;;;;;32.17;10.57;;;;;;;-145.18;100.00;60484.78;4961627;28;20504;-69
2021/12/07 05:17:19;;;;;;;31.13;11.33;;;;;;;-145.18;100.00;60484.78;4959301;28;20273;-69
2021/12/07 05:38:36;;;;;;;31.37;11.57;;;;;;;-145.18;100.00;60484.78;5016412;28;20267;-69
2021/12/07 05:41:04;;;;;;;34.83;12.33;;;;;;;-145.18;100.00;60484.78;5017584;28;20272;-69
2021/12/07 05:43:31;;;;;;;28.13;10.53;;;;;;;-145.18;100.00;60484.78;5010643;28;20297;-69
2021/12/07 05:45:56;;;;;;;26.57;10.43;;;;;;;-145.18;100.00;60484.78;5015877;28;20292;-69
2021/12/07 05:48:22;;;;;;;35.80;11.03;;;;;;;-145.18;100.00;60484.78;5016383;28;20343;-69
2021/12/07 05:50:47;;;;;;;28.13;10.20;;;;;;;-145.18;100.00;60484.78;5017952;28;20040;-69
2021/12/07 05:53:13;;;;;;;32.33;11.07;;;;;;;-145.18;100.00;60484.78;5017772;28;20043;-69
2021/12/07 05:55:39;;;;;;;31.07;10.20;;;;;;;-145.18;100.00;60484.78;5016254;28;20726;-69
2021/12/07 05:58:08;;;;;;;34.43;11.03;;;;;;;-145.18;100.00;60484.78;5019972;28;20860;-69
2021/12/07 06:00:35;;;;;;;30.23;9.93;;;;;;;-145.18;100.00;60484.78;5019733;28;20307;-69
2021/12/07 06:03:05;;;;;;;34.40;12.17;;;;;;;-145.18;100.00;60484.78;5019999;28;20706;-69
2021/12/07 06:05:32;;;;;;;35.13;11.60;;;;;;;-145.18;100.00;60484.78;5020169;28;20295;-69
2021/12/07 06:07:58;;;;;;;31.97;10.53;;;;;;;-145.18;100.00;60484.78;5021438;28;20276;-69
2021/12/07 06:10:25;;;;;;;33.50;10.93;;;;;;;-145.18;100.00;60484.78;5024684;28;20268;-69
2021/12/07 06:12:52;;;;;;;34.90;11.13;;;;;;;-145.18;100.00;60484.78;5020683;28;20397;-69
2021/12/07 06:15:20;;;;;;;33.80;11.00;;;;;;;-145.18;100.00;60484.78;5012602;28;20322;-69
2021/12/07 06:17:47;;;;;;;35.10;11.63;;;;;;;-145.18;100.00;60484.78;5022429;28;20359;-69
2021/12/07 06:20:14;;;;;;;30.17;11.17;;;;;;;-145.18;100.00;60484.78;5018885;28;20340;-69
2021/12/07 06:22:39;;;;;;;33.40;10.53;;;;;;;-145.18;100.00;60484.78;5016647;28;20687;-69
2021/12/07 06:25:06;;;;;;;36.60;12.30;;;;;;;-145.18;100.00;60484.78;5012290;28;20278;-69
2021/12/07 06:27:31;;;;;;;30.27;10.23;;;;;;;-145.18;100.00;60484.78;5012729;28;20561;-69
2021/12/07 06:29:57;;;;;;;35.77;12.43;;;;;;;-145.18;100.00;60484.78;5013583;28;20292;-69
2021/12/07 06:32:24;;;;;;;33.90;12.00;;;;;;;-145.18;100.00;60484.78;5017926;28;20541;-69
2021/12/07 06:34:49;;;;;;;28.80;10.20;;;;;;;-145.18;100.00;60484.78;5016156;28;20277;-69
2021/12/07 06:37:15;;;;;;;34.03;11.97;;;;;;;-145.18;100.00;60484.78;5017195;28;20825;-69
2021/12/07 06:39:41;;;;;;;35.93;12.03;;;;;;;-145.18;100.00;60484.78;5015707;28;20025;-69
2021/12/07 06:42:06;;;;;;;37.17;11.00;;;;;;;-145.18;100.00;60484.78;5020212;28;20036;-69
2021/12/07 06:44:31;;;;;;;32.67;11.13;;;;;;;-145.18;100.00;60484.78;5019796;28;20037;-69
2021/12/07 06:46:57;;;;;;;33.53;11.90;;;;;;;-145.18;100.00;60484.78;5016280;28;20060;-69
2021/12/07 06:49:22;;;;;;;36.60;12.10;;;;;;;-145.18;100.00;60484.78;5010363;28;20029;-69
2021/12/07 06:51:50;;;;;;;35.67;10.53;;;;;;;-145.18;100.00;60484.78;5015769;28;20707;-69
2021/12/07 06:54:16;;;;;;;37.97;12.87;;;;;;;-145.18;100.00;60484.78;5018976;28;20025;-69
2021/12/07 06:56:42;;;;;;;32.77;12.57;;;;;;;-145.18;100.00;60484.78;5021091;28;20755;-69
2021/12/07 06:59:07;;;;;;;32.93;11.53;;;;;;;-145.18;100.00;60484.78;5020741;28;20041;-69
2021/12/07 07:01:33;;;;;;;34.37;11.33;;;;;;;-145.18;100.00;60484.78;5020524;28;20041;-69
2021/12/07 07:04:00;;;;;;;34.40;11.40;;;;;;;-145.18;100.00;60484.78;5020578;28;20076;-69
2021/12/07 07:06:25;;;;;;;35.90;12.13;;;;;;;-145.18;100.00;60484.78;5020547;28;20363;-69
2021/12/07 07:08:51;;;;;;;33.90;11.13;;;;;;;-145.18;100.00;60484.78;5020841;28;20430;-69
2021/12/07 07:11:18;;;;;;;34.30;10.70;;;;;;;-145.18;100.00;60484.78;5021164;28;20421;-69
2021/12/07 07:13:47;;;;;;;32.47;11.37;;;;;;;-145.18;100.00;60484.78;5021332;28;20733;-69
2021/12/07 07:16:14;;;;;;;27.50;10.63;;;;;;;-145.18;100.00;60484.78;5020040;28;20276;-69
2021/12/07 07:18:39;;;;;;;36.20;11.87;;;;;;;-145.18;100.00;60484.78;5021034;28;20279;-69
2021/12/07 07:21:06;;;;;;;32.97;11.90;;;;;;;-145.18;100.00;60484.78;5020001;28;20291;-69
2021/12/07 07:23:33;;;;;;;39.27;12.20;;;;;;;-145.18;100.00;60484.78;5020166;28;20045;-69
2021/12/07 07:25:58;;;;;;;34.20;11.70;;;;;;;-145.18;100.00;60484.78;5020251;28;20286;-69
2021/12/07 07:28:25;;;;;;;35.07;12.27;;;;;;;-145.18;100.00;60484.78;5020222;28;20275;-69
2021/12/07 07:30:51;;;;;;;33.40;11.53;;;;;;;-145.18;100.00;60484.78;5019165;28;20029;-69
2021/12/07 07:33:17;;;;;;;34.40;12.20;;;;;;;-145.18;100.00;60484.78;5012080;28;20310;-69
2021/12/07 07:35:43;;;;;;;35.53;11.93;;;;;;;-145.18;100.00;60484.78;5009957;28;20017;-69
2021/12/07 07:38:09;;;;;;;31.37;10.93;;;;;;;-145.18;100.00;60484.78;5017496;28;20573;-69
2021/12/07 07:40:34;;;;;;;32.93;11.70;;;;;;;-145.18;100.00;60484.78;5020953;28;20326;-69
2021/12/07 07:43:00;;;;;;;31.90;11.33;;;;;;;-145.18;100.00;60484.78;5020665;28;20507;-69
2021/12/07 07:45:25;;;;;;;32.17;11.07;;;;;;;-145.18;100.00;60484.78;5020690;28;20025;-69
2021/12/07 07:47:51;;;;;;;29.87;11.60;;;;;;;-145.18;100.00;60484.78;5017085;28;20682;-69
2021/12/07 07:50:17;;;;;;;28.87;9.67;;;;;;;-145.18;100.00;60484.78;5020832;28;20029;-69
2021/12/07 07:52:43;;;;;;;29.30;10.77;;;;;;;-145.18;100.00;60484.78;5023414;28;20342;-69
2021/12/07 07:55:10;;;;;;;28.30;10.47;;;;;;;-145.18;100.00;60484.78;5024954;28;20021;-69
2021/12/07 07:57:36;;;;;;;32.93;9.80;;;;;;;-145.18;100.00;60484.78;5023780;28;20041;-69
2021/12/07 08:00:04;;;;;;;32.50;11.57;;;;;;;-145.18;100.00;60484.78;5024610;28;20609;-69
2021/12/07 08:02:29;;;;;;;27.77;9.50;;;;;;;-145.18;100.00;60484.78;5023668;28;20037;-69
2021/12/07 08:04:55;;;;;;;28.87;9.80;;;;;;;-145.18;100.00;60484.78;5024325;28;20295;-69
2021/12/07 08:07:20;;;;;;;31.80;10.77;;;;;;;-145.18;100.00;60484.78;5023658;28;20108;-69
2021/12/07 08:09:46;;;;;;;29.33;11.57;;;;;;;-145.18;100.00;60484.78;5024133;28;20060;-69
2021/12/07 08:12:11;;;;;;;30.87;9.93;;;;;;;-145.18;100.00;60484.78;5024434;28;20033;-69
2021/12/07 08:14:37;;;;;;;33.50;11.50;;;;;;;-145.18;100.00;60484.78;5024062;28;20072;-69
2021/12/07 08:17:03;;;;;;;38.33;11.37;;;;;;;-145.18;100.00;60484.78;5023973;28;20025;-69
2021/12/07 08:19:29;;;;;;;32.17;11.00;;;;;;;-145.18;100.00;60484.78;5023805;28;20912;-69
2021/12/07 08:21:54;;;;;;;31.93;10.23;;;;;;;-145.18;100.00;60484.78;5024128;28;20284;-69
2021/12/07 08:24:19;;;;;;;29.37;9.83;;;;;;;-145.18;100.00;60484.78;5024211;28;20117;-69
2021/12/07 08:26:45;;;;;;;27.00;9.37;;;;;;;-145.18;100.00;60484.78;5023929;28;20656;-69
2021/12/07 08:29:11;;;;;;;26.13;9.90;;;;;;;-145.18;100.00;60484.78;5023480;28;20781;-69
2021/12/07 08:31:36;;;;;;;30.30;10.10;;;;;;;-145.18;100.00;60484.78;5023739;28;20276;-69
2021/12/07 08:34:02;;;;;;;28.50;9.63;;;;;;;-145.18;100.00;60484.78;5024122;28;20551;-69
2021/12/07 08:36:28;;;;;;;31.57;9.50;;;;;;;-145.18;100.00;60484.78;5023880;28;20033;-69
2021/12/07 08:38:54;;;;;;;31.40;10.40;;;;;;;-145.18;100.00;60484.78;5023475;28;20040;-69
2021/12/07 08:41:19;;;;;;;29.90;10.20;;;;;;;-145.18;100.00;60484.78;5023085;28;20272;-69
2021/12/07 08:43:45;;;;;;;27.97;9.53;;;;;;;-145.18;100.00;60484.78;5023683;28;20021;-69
2021/12/07 08:46:13;;;;;;;26.67;9.80;;;;;;;-145.18;100.00;60484.78;5023384;28;20509;-69
2021/12/07 08:48:41;;;;;;;25.70;9.50;;;;;;;-145.18;100.00;60484.78;5023194;28;20034;-69
2021/12/07 08:51:09;;;;;;;30.13;9.03;;;;;;;-145.18;100.00;60484.78;5023609;28;20695;-69
2021/12/07 08:53:40;;;;;;;28.20;9.80;;;;;;;-145.18;100.00;60484.78;5023237;28;20358;-69
2021/12/07 09:01:34;;;;;;;30.23;11.70;;;;;;;-145.18;100.00;60484.78;5022661;28;20300;-69
2021/12/07 09:04:00;;;;;;;30.53;9.70;;;;;;;-145.18;100.00;60484.78;5022847;28;20792;-69
2021/12/07 09:06:27;;;;;;;27.20;10.43;;;;;;;-145.18;100.00;60484.78;5023280;28;20714;-69
2021/12/07 09:08:53;;;;;;;25.27;9.00;;;;;;;-145.18;100.00;60484.78;5023236;28;20268;-69
2021/12/07 09:11:19;;;;;;;25.07;8.90;;;;;;;-145.18;100.00;60484.78;5022527;28;20898;-69
2021/12/07 09:13:45;;;;;;;27.87;10.83;;;;;;;-145.18;100.00;60484.78;5022897;28;20044;-69
2021/12/07 09:16:14;;;;;;;26.27;9.37;;;;;;;-145.18;100.00;60484.78;5023699;28;20268;-69
2021/12/07 09:18:40;;;;;;;25.87;8.83;;;;;;;-145.18;100.00;60484.78;5023186;28;20021;-69
2021/12/07 09:21:06;;;;;;;25.90;9.37;;;;;;;-145.18;100.00;60484.78;5022693;28;20381;-69
2021/12/07 09:23:31;;;;;;;27.77;8.57;;;;;;;-145.18;100.00;60484.78;5022464;28;20406;-69
2021/12/07 09:25:57;;;;;;;28.23;10.37;;;;;;;-145.18;100.00;60484.78;5023344;28;20051;-69
2021/12/07 09:28:24;;;;;;;24.00;8.57;;;;;;;-145.18;100.00;60484.78;5022873;28;20482;-69
2021/12/07 09:30:51;;;;;;;24.17;9.73;;;;;;;-145.18;100.00;60484.78;5014144;28;20056;-69
2021/12/07 09:33:22;;;;;;;21.80;7.83;;;;;;;-145.18;100.00;60484.78;5030357;28;20280;-69
2021/12/07 09:35:48;;;;;;;25.40;9.80;;;;;;;-145.18;100.00;60484.78;5021712;28;20692;-69
2021/12/07 09:38:15;;;;;;;20.63;9.23;;;;;;;-145.18;100.00;60484.78;5020643;28;20351;-69
2021/12/07 09:40:42;;;;;;;22.07;8.23;;;;;;;-145.18;100.00;60484.78;5020257;28;20042;-71
2021/12/07 09:43:08;;;;;;;22.10;9.40;;;;;;;-145.18;100.00;60484.78;5022236;28;20272;-69
2021/12/07 09:45:35;;;;;;;24.70;9.80;;;;;;;-145.18;100.00;60484.78;5013359;28;20303;-69
2021/12/07 09:48:05;;;;;;;27.37;9.67;;;;;;;-145.18;100.00;60484.78;5022439;28;20276;-69
2021/12/07 09:50:33;;;;;;;31.17;10.93;;;;;;;-145.18;100.00;60484.78;5021996;28;20109;-69
2021/12/07 09:52:58;;;;;;;28.57;9.47;;;;;;;-145.18;100.00;60484.78;5022151;28;20041;-69
2021/12/07 09:55:25;;;;;;;24.83;9.23;;;;;;;-145.18;100.00;60484.78;5004316;28;20047;-69
2021/12/07 09:57:52;;;;;;;22.90;9.07;;;;;;;-145.18;100.00;60484.78;5022019;28;20033;-69
2021/12/07 10:00:25;;;;;;;22.43;8.57;;;;;;;-145.18;100.00;60484.78;5004436;28;20049;-69
2021/12/07 10:02:51;;;;;;;23.37;8.83;;;;;;;-145.18;100.00;60484.78;5021704;28;20106;-69
2021/12/07 10:05:19;;;;;;;30.33;10.37;;;;;;;-145.18;100.00;60484.78;5021537;28;20293;-69
2021/12/07 10:07:46;;;;;;;24.70;9.90;;;;;;;-145.18;100.00;60484.78;5021858;28;20055;-69
2021/12/07 10:10:31;;;;;;;26.97;9.63;;;;;;;-145.18;100.00;60484.78;5009099;28;20043;-69
2021/12/07 10:12:57;;;;;;;28.00;10.17;;;;;;;-145.18;100.00;60484.78;5021855;28;20291;-69
2021/12/07 10:15:23;;;;;;;28.17;8.67;;;;;;;-145.18;100.00;60484.78;5021198;28;20069;-69
2021/12/07 10:18:14;;;;;;;22.20;8.97;;;;;;;-145.18;100.00;60484.78;5021970;28;20033;-69
2021/12/07 10:20:46;;;;;;;26.77;9.50;;;;;;;-145.18;100.00;60484.78;5021862;28;20053;-69
2021/12/07 10:23:15;;;;;;;24.33;8.98;;;;;;;-145.18;100.00;60484.78;5021540;28;20051;-69
2021/12/07 10:25:44;;;;;;;23.13;8.70;;;;;;;-145.18;100.00;60484.78;5021716;28;20109;-69
2021/12/07 10:28:26;;;;;;;22.27;8.37;;;;;;;-145.18;100.00;60484.78;5021169;28;20148;-69
2021/12/07 10:31:16;;;;;;;20.02;7.57;;;;;;;-145.18;100.00;60484.78;5021874;28;20724;-71
2021/12/07 10:33:52;;;;;;;23.67;8.13;;;;;;;-145.18;100.00;60484.78;5013202;28;20044;-69
2021/12/07 10:36:24;;;;;;;24.97;10.00;;;;;;;-145.18;100.00;60484.78;5021491;28;20556;-69
2021/12/07 10:39:00;;;;;;;26.63;9.03;;;;;;;-145.18;100.00;60484.78;5021583;28;20675;-69
2021/12/07 10:41:27;;;;;;;17.33;6.63;;;;;;;-145.18;100.00;60484.78;5020926;28;20470;-69
2021/12/07 10:44:10;;;;;;;27.80;8.83;;;;;;;-145.18;100.00;60484.78;5021235;28;20108;-69
2021/12/07 10:46:41;;;;;;;20.90;7.97;;;;;;;-145.18;100.00;60484.78;5021059;28;20030;-69
2021/12/07 10:49:46;;;;;;;20.20;6.70;;;;;;;-145.18;100.00;60484.78;5021394;28;20056;-69
2021/12/07 10:52:21;;;;;;;20.40;7.77;;;;;;;-145.18;100.00;60484.78;4963938;28;20049;-69
2021/12/07 10:55:07;;;;;;;21.87;7.87;;;;;;;-145.18;100.00;60484.78;4959348;28;20466;-69
2021/12/07 10:57:44;;;;;;;19.37;7.20;;;;;;;-145.18;100.00;60484.78;4962856;28;20046;-69
2021/12/07 11:00:45;;;;;;;23.13;7.80;;;;;;;-145.18;100.00;60484.78;4957937;28;20031;-69
2021/12/07 11:03:29;;;;;;;20.37;7.73;;;;;;;-145.18;100.00;60484.78;4853542;29;20068;-70
2021/12/07 11:05:55;;;;;;;17.30;7.80;;;;;;;-145.18;100.00;60484.78;4850801;29;20399;-69
2021/12/07 11:08:28;;;;;;;18.30;7.37;;;;;;;-145.18;100.00;60484.78;4864683;29;20045;-69
2021/12/07 11:10:55;;;;;;;22.40;7.27;;;;;;;-145.18;100.00;60484.78;4864340;29;20811;-69
2021/12/07 11:13:26;;;;;;;21.50;8.07;;;;;;;-145.18;100.00;60484.78;4857300;29;20037;-69
2021/12/07 11:15:59;;;;;;;26.50;9.03;;;;;;;-145.18;100.00;60484.78;4852773;29;20276;-69
2021/12/07 11:18:34;;;;;;;20.73;8.20;;;;;;;-145.18;100.00;60484.78;4852499;29;20818;-69
2021/12/07 11:21:08;;;;;;;28.00;8.57;;;;;;;-145.18;100.00;60484.78;4859883;29;20776;-69
2021/12/07 11:23:44;;;;;;;18.20;7.40;;;;;;;-145.18;100.00;60484.78;4864297;29;20576;-69
2021/12/07 11:31:37;;;;;;;16.10;6.80;;;;;;;-145.18;100.00;60484.78;4913688;29;20046;-69
2021/12/07 11:34:19;;;;;;;19.83;6.77;;;;;;;-145.18;100.00;60484.78;4902770;29;20192;-69
2021/12/07 11:36:45;;;;;;;16.13;6.97;;;;;;;-145.18;100.00;60484.78;4910651;29;20611;-69
2021/12/07 11:39:21;;;;;;;21.93;7.37;;;;;;;-145.18;100.00;60484.78;4941163;28;20149;-69
2021/12/07 11:41:51;;;;;;;16.93;6.13;;;;;;;-145.18;100.00;60484.78;5001765;28;20571;-69
2021/12/07 11:44:18;;;;;;;16.57;6.87;;;;;;;-145.18;100.00;60484.78;5004969;28;20060;-69
2021/12/07 11:46:47;;;;;;;17.70;6.10;;;;;;;-145.18;100.00;60484.78;5004706;28;20084;-69
2021/12/07 11:49:19;;;;;;;17.70;6.67;;;;;;;-145.18;100.00;60484.78;5005060;28;20097;-69
2021/12/07 11:51:48;;;;;;;12.48;5.82;;;;;;;-145.18;100.00;60484.78;5009435;28;20417;-69
2021/12/07 11:54:16;;;;;;;17.37;6.73;;;;;;;-145.18;100.00;60484.78;5004659;28;20041;-69
2021/12/07 11:56:43;;;;;;;14.37;5.83;;;;;;;-145.18;100.00;60484.78;5004218;28;20061;-69
2021/12/07 11:59:09;;;;;;;16.20;5.53;;;;;;;-145.18;100.00;60484.78;4995207;28;20021;-69
2021/12/07 12:01:35;;;;;;;14.40;5.97;;;;;;;-145.18;100.00;60484.78;5004037;28;20033;-69
2021/12/07 12:04:01;;;;;;;18.17;6.60;;;;;;;-145.18;100.00;60484.78;5010885;28;20405;-69
2021/12/07 12:06:27;;;;;;;13.23;5.33;;;;;;;-145.18;100.00;60484.78;5023768;28;20030;-69
2021/12/07 12:08:53;;;;;;;19.17;7.10;;;;;;;-145.18;100.00;60484.78;5024286;28;20033;-69
2021/12/07 12:11:31;;;;;;;22.77;6.77;;;;;;;-145.18;100.00;60484.78;5023978;28;20385;-69
2021/12/07 12:14:18;;;;;;;12.77;6.13;;;;;;;-145.18;100.00;60484.78;5023998;28;20029;-69
2021/12/07 12:17:05;;;;;;;18.13;5.10;;;;;;;-145.18;100.00;60484.78;5023809;28;20029;-69
2021/12/07 12:19:44;;;;;;;15.13;6.03;;;;;;;-145.18;100.00;60484.78;5024076;28;20079;-69
2021/12/07 12:22:24;;;;;;;16.23;5.93;;;;;;;-145.18;100.00;60484.78;5023853;28;20087;-69
2021/12/07 12:24:54;;;;;;;23.17;6.60;;;;;;;-145.18;100.00;60484.78;5012208;28;20029;-69
2021/12/07 12:27:24;;;;;;;20.87;6.17;;;;;;;-145.18;100.00;60484.78;5023112;28;20029;-69
2021/12/07 12:29:52;;;;;;;18.53;7.33;;;;;;;-145.18;100.00;60484.78;5024112;28;20026;-69
2021/12/07 12:32:37;;;;;;;17.70;6.60;;;;;;;-145.18;100.00;60484.78;5023756;28;20025;-69
2021/12/07 12:35:06;;;;;;;18.77;6.50;;;;;;;-145.18;100.00;60484.78;5024033;28;20037;-69
2021/12/07 12:37:32;;;;;;;16.43;5.30;;;;;;;-145.18;100.00;60484.78;5022250;28;20120;-69
2021/12/07 12:40:00;;;;;;;15.23;6.10;;;;;;;-145.18;100.00;60484.78;5023625;28;20529;-69
2021/12/07 12:42:43;;;;;;;16.30;5.27;;;;;;;-145.18;100.00;60484.78;5022017;28;20036;-69
2021/12/07 12:45:20;;;;;;;12.13;5.47;;;;;;;-145.18;100.00;60484.78;5018962;28;20045;-69
2021/12/07 12:47:54;;;;;;;17.50;5.13;;;;;;;-145.18;100.00;60484.78;5022957;28;20056;-69
2021/12/07 12:50:23;;;;;;;16.47;5.53;;;;;;;-145.18;100.00;60484.78;5023348;28;20040;-69
2021/12/07 12:52:52;;;;;;;12.90;5.90;;;;;;;-145.18;100.00;60484.78;5022988;28;20061;-69
2021/12/07 12:55:28;;;;;;;13.33;4.77;;;;;;;-145.18;100.00;60484.78;5022805;28;20036;-69
2021/12/07 12:57:54;;;;;;;13.80;4.50;;;;;;;-145.18;100.00;60484.78;5022695;28;20029;-69
2021/12/07 13:00:21;;;;;;;13.77;5.63;;;;;;;-145.18;100.00;60484.78;5023427;28;20032;-69